Airport ICAO


07:27 UTC

10°C

Broken clouds


An affordable passengers' Moving Map for your aircraft. Made for the iPad and the iPhone
More information here

LFLY Bron


Lyon FRANCE   VFR


METAR LFLY 200700Z AUTO VRB02KT 9999 BKN033 10/08 Q1023 TEMPO 3000 BR BKN006 0h27min

TAF LFLY 200500Z 2006/2106 35004KT CAVOK PROB30 TEMPO 2006/2008 3000 BR BKN006 BECMG 2010/2012 36012KT BECMG 2019/2021 VRB02KT PROB30 TEMPO 2103/2106 0400 FG VV/// 2h27min





NOTAMS

OPEN